createdAt,value
2018-08-22T00:01:05.031Z,76.29
2018-08-22T00:03:33.722Z,76.48
2018-08-22T00:06:02.571Z,77.00
2018-08-22T00:08:36.226Z,76.24
2018-08-22T00:11:04.887Z,77.24
2018-08-22T00:13:33.587Z,78.06
2018-08-22T00:16:02.290Z,77.37
2018-08-22T00:18:31.009Z,78.63
2018-08-22T00:20:59.699Z,78.40
2018-08-22T00:23:28.446Z,78.49
2018-08-22T00:25:57.167Z,78.72
2018-08-22T00:28:25.899Z,78.45
2018-08-22T00:30:54.678Z,79.11
2018-08-22T00:33:23.432Z,79.26
2018-08-22T00:35:52.236Z,80.12
2018-08-22T00:38:21.032Z,80.45
2018-08-22T00:40:49.814Z,80.01
2018-08-22T00:43:18.736Z,79.52
2018-08-22T00:45:47.534Z,79.99
2018-08-22T00:48:16.299Z,80.34
2018-08-22T00:50:45.062Z,80.84
2018-08-22T00:53:13.843Z,80.58
2018-08-22T00:55:42.620Z,80.42
2018-08-22T00:58:11.493Z,80.75
2018-08-22T01:00:40.366Z,80.90
2018-08-22T01:03:09.195Z,81.33
2018-08-22T01:05:38.000Z,82.70
2018-08-22T01:08:06.821Z,83.27
2018-08-22T01:10:35.748Z,83.86
2018-08-22T01:13:04.525Z,83.94
2018-08-22T01:15:33.360Z,83.77
2018-08-22T01:18:02.235Z,83.33
2018-08-22T01:20:31.078Z,83.54
2018-08-22T01:22:59.859Z,82.79
2018-08-22T01:25:28.749Z,82.82
2018-08-22T01:27:57.510Z,83.55
2018-08-22T01:30:26.425Z,83.68
2018-08-22T01:32:55.150Z,83.66
2018-08-22T01:35:24.714Z,83.54
2018-08-22T01:37:53.551Z,83.70
2018-08-22T01:40:22.415Z,83.22
2018-08-22T01:42:51.175Z,82.83
2018-08-22T01:45:19.972Z,82.42
2018-08-22T01:47:48.799Z,81.41
2018-08-22T01:50:17.663Z,81.88
2018-08-22T01:52:46.443Z,81.54
2018-08-22T01:55:15.259Z,80.80
2018-08-22T01:57:44.034Z,81.93
2018-08-22T02:00:12.929Z,82.35
2018-08-22T02:02:41.784Z,82.03
2018-08-22T02:05:10.578Z,82.62
2018-08-22T02:07:39.355Z,82.72
2018-08-22T02:10:08.130Z,82.52
2018-08-22T02:12:37.041Z,82.76
2018-08-22T02:15:06.489Z,82.24
2018-08-22T02:17:35.213Z,82.91
2018-08-22T02:20:03.914Z,82.76
2018-08-22T02:22:32.598Z,82.75
2018-08-22T02:25:01.344Z,82.59
2018-08-22T02:27:30.165Z,82.81
2018-08-22T02:30:07.740Z,82.65
2018-08-22T02:32:36.850Z,82.28
2018-08-22T02:35:05.824Z,82.45
2018-08-22T02:37:34.566Z,83.23
2018-08-22T02:40:03.387Z,82.66
2018-08-22T02:42:32.197Z,83.27
2018-08-22T02:45:01.056Z,83.01
2018-08-22T02:47:29.874Z,83.44
2018-08-22T02:49:58.625Z,83.23
2018-08-22T02:52:27.537Z,83.38
2018-08-22T02:54:56.262Z,83.34
2018-08-22T02:57:24.996Z,83.06
2018-08-22T02:59:53.759Z,82.61
2018-08-22T03:02:22.466Z,83.10
2018-08-22T03:04:51.241Z,83.60
2018-08-22T03:07:20.049Z,83.87
2018-08-22T03:09:48.815Z,83.91
2018-08-22T03:12:17.521Z,84.14
2018-08-22T03:14:46.248Z,83.97
2018-08-22T03:17:14.999Z,83.54
2018-08-22T03:19:43.791Z,83.31
2018-08-22T03:22:12.630Z,84.19
2018-08-22T03:24:41.413Z,83.37
2018-08-22T03:27:10.168Z,83.18
2018-08-22T03:29:39.009Z,83.91
2018-08-22T03:32:07.651Z,83.45
2018-08-22T03:34:36.391Z,83.14
2018-08-22T03:37:05.222Z,83.38
2018-08-22T03:39:33.971Z,82.52
2018-08-22T03:42:02.635Z,82.75
2018-08-22T03:44:31.303Z,82.38
2018-08-22T03:47:00.021Z,82.77
2018-08-22T03:49:28.684Z,82.93
2018-08-22T03:51:57.402Z,81.83
2018-08-22T03:54:26.140Z,82.20
2018-08-22T03:56:54.834Z,81.83
2018-08-22T03:59:23.556Z,81.62
2018-08-22T04:01:52.263Z,81.67
2018-08-22T04:04:22.002Z,81.24
2018-08-22T04:06:50.726Z,80.68
2018-08-22T04:09:19.415Z,80.28
2018-08-22T04:11:48.060Z,80.75
2018-08-22T04:14:16.771Z,81.11
2018-08-22T04:16:45.474Z,80.48
2018-08-22T04:19:14.145Z,79.52
2018-08-22T04:21:42.815Z,77.18
2018-08-22T04:24:11.463Z,74.95
2018-08-22T04:26:40.154Z,73.56
2018-08-22T04:29:08.830Z,72.41
2018-08-22T04:31:37.470Z,69.73
2018-08-22T04:34:06.178Z,68.86
2018-08-22T04:36:34.850Z,68.40
2018-08-22T04:39:04.243Z,68.95
2018-08-22T04:41:32.873Z,67.52
2018-08-22T04:44:01.515Z,67.61
2018-08-22T04:46:30.160Z,68.09
2018-08-22T04:48:58.825Z,68.54
2018-08-22T04:51:27.470Z,68.66
2018-08-22T04:53:56.130Z,67.61
2018-08-22T04:56:24.770Z,65.19
2018-08-22T04:58:53.484Z,63.73
2018-08-22T05:01:22.199Z,63.39
2018-08-22T05:03:50.874Z,63.14
2018-08-22T05:06:19.567Z,62.27
2018-08-22T05:08:48.244Z,60.26
2018-08-22T05:11:16.955Z,59.91
2018-08-22T05:13:45.660Z,60.19
2018-08-22T05:16:14.365Z,60.01
2018-08-22T05:18:43.070Z,59.04
2018-08-22T05:21:11.775Z,58.09
2018-08-22T05:23:40.439Z,58.02
2018-08-22T05:26:09.167Z,56.92
2018-08-22T05:28:37.872Z,57.02
2018-08-22T05:31:06.693Z,56.75
2018-08-22T05:33:35.408Z,56.87
2018-08-22T05:36:10.605Z,56.51
2018-08-22T05:38:39.339Z,55.76
2018-08-22T05:41:08.148Z,55.69
2018-08-22T05:43:36.875Z,54.74
2018-08-22T05:46:05.553Z,53.61
2018-08-22T05:48:34.265Z,54.27
2018-08-22T05:51:02.969Z,53.14
2018-08-22T05:53:31.717Z,52.95
2018-08-22T05:56:00.386Z,52.51
2018-08-22T05:58:29.099Z,54.76
2018-08-22T06:00:57.816Z,55.36
2018-08-22T06:03:26.576Z,54.47
2018-08-22T06:05:55.234Z,53.34
2018-08-22T06:08:23.918Z,53.05
2018-08-22T06:10:52.645Z,53.01
2018-08-22T06:13:21.402Z,52.06
2018-08-22T06:15:50.201Z,50.93
2018-08-22T06:18:18.812Z,52.16
2018-08-22T06:20:47.555Z,52.14
2018-08-22T06:23:16.284Z,50.89
2018-08-22T06:25:46.023Z,49.65
2018-08-22T06:28:14.749Z,50.58
2018-08-22T06:30:43.695Z,50.60
2018-08-22T06:33:12.404Z,51.59
2018-08-22T06:35:41.112Z,52.18
2018-08-22T06:38:09.833Z,51.45
2018-08-22T06:40:38.526Z,52.38
2018-08-22T06:43:07.233Z,50.50
2018-08-22T06:45:35.929Z,49.81
2018-08-22T06:48:04.708Z,47.62
2018-08-22T06:50:33.378Z,47.69
2018-08-22T06:53:02.051Z,48.77
2018-08-22T06:55:30.732Z,49.18
2018-08-22T06:57:59.407Z,50.32
2018-08-22T07:00:28.150Z,49.52
2018-08-22T07:02:56.836Z,48.14
2018-08-22T07:05:25.648Z,47.78
2018-08-22T07:07:55.097Z,46.81
2018-08-22T07:10:23.800Z,47.86
2018-08-22T07:12:52.563Z,45.86
2018-08-22T07:15:21.227Z,44.84
2018-08-22T07:17:49.919Z,44.59
2018-08-22T07:20:18.608Z,44.94
2018-08-22T07:49:30.932Z,42.62
2018-08-22T07:51:59.665Z,42.39
2018-08-22T07:54:31.603Z,42.63
2018-08-22T07:57:00.292Z,42.01
2018-08-22T07:59:29.054Z,43.03
2018-08-22T08:01:57.810Z,41.86
2018-08-22T08:04:26.491Z,42.81
2018-08-22T08:06:55.263Z,41.45
2018-08-22T08:09:24.001Z,40.05
2018-08-22T08:11:53.046Z,41.73
2018-08-22T08:14:21.825Z,41.43
2018-08-22T08:16:50.555Z,40.32
2018-08-22T08:19:19.314Z,39.71
2018-08-22T08:21:48.175Z,38.64
2018-08-22T08:24:16.995Z,38.27
2018-08-22T08:26:45.792Z,39.29
2018-08-22T08:29:14.645Z,38.36
2018-08-22T08:31:43.397Z,37.62
2018-08-22T08:34:12.211Z,37.25
2018-08-22T08:36:41.061Z,38.68
2018-08-22T08:39:10.925Z,36.48
2018-08-22T08:41:39.798Z,35.91
2018-08-22T08:44:08.604Z,35.91
2018-08-22T08:46:37.508Z,35.49
2018-08-22T08:49:06.367Z,34.50
2018-08-22T08:51:36.399Z,34.48
2018-08-22T08:54:05.234Z,34.15
2018-08-22T08:56:34.000Z,33.90
2018-08-22T08:59:02.859Z,32.73
2018-08-22T09:01:31.650Z,33.69
2018-08-22T09:04:00.526Z,32.44
2018-08-22T09:06:29.166Z,31.01
2018-08-22T09:08:58.066Z,31.81
2018-08-22T09:11:26.775Z,30.47
2018-08-22T09:13:59.950Z,31.11
2018-08-22T09:16:28.720Z,31.48
2018-08-22T09:18:57.496Z,31.45
2018-08-22T09:21:26.348Z,31.41
2018-08-22T09:23:55.194Z,31.92
2018-08-22T09:26:23.961Z,30.32
2018-08-22T09:28:52.805Z,30.54
2018-08-22T09:31:21.545Z,30.62
2018-08-22T09:33:50.396Z,31.43
2018-08-22T09:36:19.131Z,30.80
2018-08-22T09:38:48.555Z,30.00
2018-08-22T09:41:17.549Z,29.75
2018-08-22T09:43:46.666Z,30.04
2018-08-22T09:46:30.050Z,29.99
2018-08-22T09:48:58.910Z,29.67
2018-08-22T09:51:27.778Z,29.79
2018-08-22T09:53:56.494Z,29.68
2018-08-22T09:56:25.493Z,30.18
2018-08-22T09:58:54.622Z,29.32
2018-08-22T10:01:42.959Z,29.77
2018-08-22T10:04:11.872Z,29.08
2018-08-22T10:06:42.129Z,29.30
2018-08-22T10:09:12.290Z,29.05
2018-08-22T10:11:41.086Z,29.44
2018-08-22T10:14:09.923Z,29.00
2018-08-22T10:16:38.845Z,29.12
2018-08-22T10:19:08.023Z,30.70
2018-08-22T10:21:37.268Z,31.41
2018-08-22T10:24:06.264Z,32.10
2018-08-22T10:26:35.155Z,30.85
2018-08-22T10:29:03.902Z,30.38
2018-08-22T10:31:32.721Z,29.97
2018-08-22T10:34:01.493Z,29.95
2018-08-22T10:36:30.258Z,29.05
2018-08-22T10:38:59.275Z,29.91
2018-08-22T10:41:28.082Z,29.41
2018-08-22T10:43:56.893Z,30.43
2018-08-22T10:46:25.523Z,29.15
2018-08-22T10:48:54.250Z,28.38
2018-08-22T10:51:22.881Z,29.43
2018-08-22T10:53:51.604Z,28.67
2018-08-22T10:56:20.402Z,29.28
2018-08-22T10:58:49.163Z,29.64
2018-08-22T11:01:17.942Z,29.08
2018-08-22T11:03:46.595Z,29.11
2018-08-22T11:06:15.358Z,28.13
2018-08-22T11:08:44.068Z,28.34
2018-08-22T11:11:12.739Z,28.17
2018-08-22T11:13:41.504Z,27.72
2018-08-22T11:16:10.283Z,29.61
2018-08-22T11:18:39.015Z,31.74
2018-08-22T11:21:18.657Z,31.72
2018-08-22T11:23:58.387Z,31.66
2018-08-22T11:26:38.003Z,32.48
2018-08-22T11:29:17.652Z,30.18
2018-08-22T11:31:57.276Z,29.61
2018-08-22T11:34:36.860Z,28.93
2018-08-22T11:37:07.904Z,28.03
2018-08-22T11:39:36.592Z,25.97
2018-08-22T11:42:05.637Z,28.06
2018-08-22T11:44:34.281Z,26.52
2018-08-22T11:47:03.084Z,27.09
2018-08-22T11:49:32.296Z,27.93
2018-08-22T11:52:01.038Z,27.34
2018-08-22T11:54:30.368Z,28.56
2018-08-22T11:56:59.045Z,28.56
2018-08-22T11:59:27.711Z,29.03
2018-08-22T12:01:56.533Z,29.09
2018-08-22T12:04:25.238Z,28.56
2018-08-22T12:06:54.031Z,29.22
2018-08-22T12:09:22.777Z,29.48
2018-08-22T12:11:51.507Z,27.84
2018-08-22T12:14:20.272Z,27.95
2018-08-22T12:16:49.113Z,29.34
2018-08-22T12:19:17.853Z,29.34
2018-08-22T12:21:46.576Z,30.07
2018-08-22T12:24:15.337Z,28.56
2018-08-22T12:26:49.285Z,30.54
2018-08-22T12:29:21.241Z,33.46
2018-08-22T12:31:49.939Z,34.01
2018-08-22T12:34:18.620Z,33.02
2018-08-22T12:36:47.386Z,32.82
2018-08-22T12:39:16.217Z,31.64
2018-08-22T12:41:44.960Z,32.57
2018-08-22T12:44:34.290Z,32.53
2018-08-22T12:47:17.157Z,34.99
2018-08-22T12:49:45.882Z,35.90
2018-08-22T12:52:14.584Z,37.20
2018-08-22T12:54:43.277Z,36.70
2018-08-22T12:57:13.555Z,35.24
2018-08-22T12:59:42.557Z,33.54
2018-08-22T13:02:11.335Z,33.61
2018-08-22T13:04:40.074Z,33.31
2018-08-22T13:07:08.834Z,33.31
2018-08-22T13:10:00.154Z,32.86
2018-08-22T13:12:37.651Z,31.77
2018-08-22T13:15:07.950Z,31.38
2018-08-22T13:17:36.590Z,31.49
2018-08-22T13:20:05.726Z,33.48
2018-08-22T13:22:34.413Z,35.59
2018-08-22T13:25:03.434Z,35.97
2018-08-22T13:27:34.301Z,37.45
2018-08-22T13:30:10.544Z,38.11
2018-08-22T13:32:43.292Z,38.21
2018-08-22T13:35:12.239Z,37.20
2018-08-22T13:37:40.971Z,36.49
2018-08-22T13:40:15.837Z,37.59
2018-08-22T13:42:44.621Z,37.45
2018-08-22T13:45:13.367Z,37.60
2018-08-22T13:47:42.164Z,38.17
2018-08-22T13:50:10.866Z,38.13
2018-08-22T13:52:39.669Z,37.87
2018-08-22T13:55:08.409Z,37.53
2018-08-22T13:57:37.363Z,38.01
2018-08-22T14:00:12.070Z,38.96
2018-08-22T14:02:49.415Z,37.60
2018-08-22T14:05:18.280Z,38.79
2018-08-22T14:07:47.033Z,38.09
2018-08-22T14:10:15.750Z,37.67
2018-08-22T14:12:44.497Z,38.12
2018-08-22T14:15:13.218Z,38.61
2018-08-22T14:17:52.224Z,38.72
2018-08-22T14:20:20.991Z,38.54
2018-08-22T14:22:49.747Z,37.21
2018-08-22T14:25:21.912Z,37.69
2018-08-22T14:27:54.820Z,37.50
2018-08-22T14:30:24.854Z,38.25
2018-08-22T14:32:53.572Z,38.22
2018-08-22T14:35:22.386Z,37.46
2018-08-22T14:37:54.341Z,38.22
2018-08-22T14:40:23.062Z,38.07
2018-08-22T14:42:51.725Z,38.59
2018-08-22T14:45:20.530Z,39.27
2018-08-22T14:47:49.182Z,39.46
2018-08-22T14:50:17.854Z,39.93
2018-08-22T14:52:46.507Z,38.96
2018-08-22T14:55:15.681Z,39.78
2018-08-22T14:57:44.500Z,40.93
2018-08-22T15:00:13.203Z,40.61
2018-08-22T15:02:43.314Z,40.87
2018-08-22T15:05:12.342Z,41.88
2018-08-22T15:07:41.052Z,41.19
2018-08-22T15:10:10.207Z,41.69
2018-08-22T15:12:39.019Z,41.66
2018-08-22T15:15:07.744Z,40.71
2018-08-22T15:17:36.482Z,40.87
2018-08-22T15:20:05.420Z,40.62
2018-08-22T15:22:34.058Z,40.03
2018-08-22T15:25:02.864Z,39.65
2018-08-22T15:27:31.556Z,39.61
2018-08-22T15:30:00.375Z,39.74
2018-08-22T15:32:29.117Z,40.34
2018-08-22T15:34:59.177Z,40.78
2018-08-22T15:37:27.947Z,40.22
2018-08-22T15:39:56.658Z,40.25
2018-08-22T15:42:28.826Z,40.88
2018-08-22T15:45:04.777Z,40.62
2018-08-22T15:47:33.680Z,40.13
2018-08-22T15:50:02.480Z,39.96
2018-08-22T15:52:31.245Z,39.96
2018-08-22T15:55:22.019Z,40.29
2018-08-22T15:57:59.400Z,40.31
2018-08-22T16:00:47.720Z,40.72
2018-08-22T16:03:16.580Z,40.44
2018-08-22T16:05:46.837Z,40.68
2018-08-22T16:08:17.950Z,41.07
2018-08-22T16:10:46.766Z,41.98
2018-08-22T16:13:20.618Z,41.57
2018-08-22T16:15:50.810Z,42.63
2018-08-22T16:18:19.668Z,42.04
2018-08-22T16:20:56.344Z,42.78
2018-08-22T16:23:31.024Z,42.10
2018-08-22T16:26:00.951Z,42.53
2018-08-22T16:29:33.728Z,42.86
2018-08-22T16:32:02.417Z,43.21
2018-08-22T16:34:31.156Z,42.94
2018-08-22T16:37:00.269Z,43.19
2018-08-22T16:39:41.592Z,44.17
2018-08-22T16:42:10.942Z,43.64
2018-08-22T16:44:39.999Z,44.27
2018-08-22T16:47:08.661Z,43.90
2018-08-22T16:49:37.429Z,44.49
2018-08-22T16:52:06.179Z,45.24
2018-08-22T16:54:34.928Z,44.46
2018-08-22T16:57:03.693Z,45.34
2018-08-22T16:59:32.401Z,45.56
2018-08-22T17:02:01.284Z,45.62
2018-08-22T17:04:29.907Z,45.87
2018-08-22T17:07:03.182Z,45.86
2018-08-22T17:09:31.910Z,46.29
2018-08-22T17:12:00.635Z,46.24
2018-08-22T17:14:29.523Z,45.90
2018-08-22T17:16:58.315Z,46.77
2018-08-22T17:19:27.212Z,45.99
2018-08-22T17:21:55.899Z,47.14
2018-08-22T17:24:24.647Z,46.37
2018-08-22T17:26:53.453Z,46.60
2018-08-22T17:29:22.159Z,46.50
2018-08-22T17:31:55.980Z,46.95
2018-08-22T17:34:24.707Z,46.69
2018-08-22T17:37:04.069Z,46.87
2018-08-22T17:39:33.362Z,47.16
2018-08-22T17:42:02.428Z,47.45
2018-08-22T17:44:31.122Z,47.34
2018-08-22T17:46:59.806Z,47.50
2018-08-22T17:49:28.496Z,47.99
2018-08-22T17:52:04.255Z,48.13
2018-08-22T17:54:33.000Z,48.40
2018-08-22T17:57:17.690Z,48.91
2018-08-22T17:59:46.564Z,49.08
2018-08-22T18:02:15.306Z,49.84
2018-08-22T18:04:57.186Z,49.30
2018-08-22T18:07:25.990Z,49.28
2018-08-22T18:09:54.741Z,49.40
2018-08-22T18:12:25.209Z,48.99
2018-08-22T18:14:56.223Z,49.18
2018-08-22T18:17:24.935Z,49.97
2018-08-22T18:19:53.693Z,49.44
2018-08-22T18:22:22.442Z,49.36
2018-08-22T18:24:56.587Z,49.63
2018-08-22T18:27:25.633Z,50.15
2018-08-22T18:29:54.341Z,49.30
2018-08-22T18:32:23.046Z,50.21
2018-08-22T18:35:12.197Z,49.92
2018-08-22T18:37:41.579Z,49.58
2018-08-22T18:40:20.853Z,49.32
2018-08-22T18:42:51.235Z,50.56
2018-08-22T18:45:20.674Z,49.60
2018-08-22T18:47:49.330Z,50.12
2018-08-22T18:50:18.287Z,49.56
2018-08-22T18:52:51.243Z,50.49
2018-08-22T18:55:28.359Z,50.56
2018-08-22T18:57:58.385Z,51.00
2018-08-22T19:00:27.154Z,50.22
2018-08-22T19:02:57.143Z,50.13
2018-08-22T19:05:32.505Z,51.09
2018-08-22T19:08:15.832Z,50.60
2018-08-22T19:10:45.895Z,50.83
2018-08-22T19:13:17.405Z,50.99
2018-08-22T19:15:48.001Z,51.45
2018-08-22T19:18:16.762Z,51.65
2018-08-22T19:20:45.550Z,52.63
2018-08-22T19:23:14.315Z,52.58
2018-08-22T19:25:46.068Z,52.11
2018-08-22T19:28:14.775Z,52.46
2018-08-22T19:30:43.517Z,52.61
2018-08-22T19:33:14.677Z,52.95
2018-08-22T19:35:43.816Z,52.88
2018-08-22T19:38:14.747Z,53.01
2018-08-22T19:40:43.459Z,53.44
2018-08-22T19:43:12.203Z,54.12
2018-08-22T19:45:40.931Z,53.66
2018-08-22T19:48:09.719Z,54.33
2018-08-22T19:50:38.398Z,54.95
2018-08-22T19:53:07.233Z,55.17
2018-08-22T19:55:37.926Z,54.91
2018-08-22T19:58:07.137Z,55.47
2018-08-22T20:00:35.860Z,55.03
2018-08-22T20:03:04.603Z,54.88
2018-08-22T20:05:55.155Z,55.32
2018-08-22T20:08:29.041Z,56.23
2018-08-22T20:10:58.902Z,57.05
2018-08-22T20:13:37.878Z,57.67
2018-08-22T20:16:06.836Z,56.73
2018-08-22T20:18:35.515Z,57.69
2018-08-22T20:21:04.308Z,57.84
2018-08-22T20:23:33.028Z,57.72
2018-08-22T20:26:01.934Z,57.11
2018-08-22T20:28:30.690Z,58.09
2018-08-22T20:31:03.745Z,57.54
2018-08-22T20:33:32.588Z,56.71
2018-08-22T20:36:01.245Z,56.96
2018-08-22T20:38:29.963Z,56.99
2018-08-22T20:41:03.023Z,58.01
2018-08-22T20:43:31.738Z,57.58
2018-08-22T20:46:00.415Z,57.46
2018-08-22T20:48:29.222Z,57.51
2018-08-22T20:50:58.026Z,56.74
2018-08-22T20:53:26.708Z,56.70
2018-08-22T20:55:56.001Z,58.07
2018-08-22T20:58:29.891Z,57.27
2018-08-22T21:00:59.018Z,56.98
2018-08-22T21:03:27.678Z,57.62
2018-08-22T21:05:56.339Z,57.97
2018-08-22T21:08:25.043Z,58.58
2018-08-22T21:10:53.711Z,59.12
2018-08-22T21:13:28.698Z,59.57
2018-08-22T21:15:57.904Z,60.69
2018-08-22T21:18:26.671Z,60.79
2018-08-22T21:20:55.445Z,61.63
2018-08-22T21:23:24.138Z,61.69
2018-08-22T21:25:52.804Z,62.49
2018-08-22T21:28:27.565Z,61.41
2018-08-22T21:30:59.061Z,62.33
2018-08-22T21:33:28.535Z,61.96
2018-08-22T21:35:57.227Z,62.61
2018-08-22T21:38:25.954Z,61.72
2018-08-22T21:40:54.671Z,61.98
2018-08-22T21:43:23.732Z,62.24
2018-08-22T21:45:52.670Z,62.63
2018-08-22T21:48:24.208Z,62.87
2018-08-22T21:50:52.912Z,63.37
2018-08-22T21:53:21.830Z,63.67
2018-08-22T21:55:51.872Z,63.89
2018-08-22T21:58:20.539Z,64.13
2018-08-22T22:00:49.285Z,64.44
2018-08-22T22:03:23.085Z,64.79
2018-08-22T22:05:57.153Z,65.22
2018-08-22T22:08:27.756Z,65.51
2018-08-22T22:11:06.455Z,66.23
2018-08-22T22:13:35.101Z,66.50
2018-08-22T22:16:05.247Z,66.53
2018-08-22T22:18:34.853Z,66.40
2018-08-22T22:21:09.726Z,66.76
2018-08-22T22:23:43.808Z,66.35
2018-08-22T22:26:12.893Z,66.42
2018-08-22T22:28:41.905Z,65.48
2018-08-22T22:31:12.685Z,64.80
2018-08-22T22:33:57.989Z,65.18
2018-08-22T22:36:26.672Z,65.52
2018-08-22T22:38:55.389Z,65.41
2018-08-22T22:41:26.770Z,64.84
2018-08-22T22:43:55.462Z,64.53
2018-08-22T22:46:24.095Z,63.72
2018-08-22T22:48:52.834Z,63.53
2018-08-22T22:51:21.496Z,61.14
2018-08-22T22:53:50.267Z,61.91
2018-08-22T22:56:19.011Z,60.29
2018-08-22T22:58:47.665Z,59.01
2018-08-22T23:01:16.521Z,56.54
2018-08-22T23:03:45.299Z,55.95
2018-08-22T23:06:14.060Z,55.83
2018-08-22T23:08:42.953Z,55.90
2018-08-22T23:11:11.639Z,56.26
2018-08-22T23:13:40.280Z,55.19
2018-08-22T23:16:08.967Z,54.28
2018-08-22T23:18:37.710Z,54.01
2018-08-22T23:21:06.533Z,53.22
2018-08-22T23:23:37.945Z,53.29
2018-08-22T23:26:22.264Z,52.96
2018-08-22T23:28:50.914Z,53.27
2018-08-22T23:31:20.625Z,52.29
2018-08-22T23:33:49.442Z,51.37
2018-08-22T23:36:18.132Z,52.09
2018-08-22T23:38:46.771Z,50.47
2018-08-22T23:41:15.422Z,50.54
2018-08-22T23:43:49.262Z,50.96
2018-08-22T23:46:17.954Z,51.15
2018-08-22T23:48:51.266Z,50.77
2018-08-22T23:51:19.922Z,51.04
2018-08-22T23:53:49.029Z,50.85
2018-08-22T23:56:22.759Z,50.71
2018-08-22T23:58:52.128Z,49.99
